Time;durP1;ratioP1;P1;durP2;ratioP2;P2;SDS_P1;SDS_P2;PMS_P1;PMS_P2;Temp;Humidity;BMP_temperature;BMP_pressure;BME280_temperature;BME280_humidity;BME280_pressure;Samples;Min_cycle;Max_cycle;Signal;HPM_P1;HPM_P2
2021/09/19 00:01:52;;;;;;;2.58;0.90;;;18.30;1.00;;;;;;5051137;28;20501;-81
2021/09/19 00:04:18;;;;;;;2.05;0.70;;;18.30;1.00;;;;;;5047645;28;20021;-81
2021/09/19 00:06:44;;;;;;;1.40;0.43;;;18.30;1.00;;;;;;5048941;28;20028;-81
2021/09/19 00:09:09;;;;;;;1.65;0.50;;;18.20;1.00;;;;;;5048605;28;20063;-81
2021/09/19 00:11:35;;;;;;;1.70;0.57;;;18.20;1.00;;;;;;5050282;28;20025;-81
2021/09/19 00:14:00;;;;;;;1.88;0.50;;;18.20;1.00;;;;;;5053691;28;20044;-81
2021/09/19 00:16:26;;;;;;;1.13;0.50;;;18.30;1.00;;;;;;5053846;28;20536;-81
2021/09/19 00:18:52;;;;;;;2.20;0.50;;;18.30;1.00;;;;;;5052682;28;20032;-81
2021/09/19 00:21:17;;;;;;;3.20;0.63;;;18.10;1.00;;;;;;5052463;28;20021;-81
2021/09/19 00:23:43;;;;;;;1.90;0.50;;;18.20;1.00;;;;;;5051933;28;20020;-81
2021/09/19 00:26:09;;;;;;;0.85;0.60;;;18.20;1.00;;;;;;5052622;28;20037;-81
2021/09/19 00:28:34;;;;;;;1.33;0.50;;;18.20;1.00;;;;;;5053294;28;20036;-81
2021/09/19 00:31:00;;;;;;;1.85;0.60;;;17.90;1.00;;;;;;5052363;28;20094;-81
2021/09/19 00:33:25;;;;;;;0.77;0.50;;;17.80;1.00;;;;;;5052072;28;20060;-81
2021/09/19 00:35:51;;;;;;;1.75;0.50;;;17.80;1.00;;;;;;5052579;28;20021;-81
2021/09/19 00:38:17;;;;;;;1.10;0.43;;;17.90;1.00;;;;;;5052134;28;20496;-81
2021/09/19 00:40:42;;;;;;;3.33;0.75;;;18.00;1.00;;;;;;5054051;28;20017;-81
2021/09/19 00:43:08;;;;;;;2.15;0.80;;;18.10;1.00;;;;;;5052459;28;20067;-81
2021/09/19 00:45:33;;;;;;;2.75;0.70;;;17.90;1.00;;;;;;5051641;28;20017;-81
2021/09/19 00:47:59;;;;;;;3.00;0.70;;;17.80;1.00;;;;;;5052301;28;20113;-81
2021/09/19 00:50:26;;;;;;;2.83;0.70;;;17.80;1.00;;;;;;5051750;28;20485;-81
2021/09/19 00:52:52;;;;;;;3.08;0.70;;;17.80;1.00;;;;;;5053709;28;20040;-81
2021/09/19 00:55:20;;;;;;;3.90;0.60;;;17.90;1.00;;;;;;5050590;28;20481;-81
2021/09/19 00:57:51;;;;;;;0.95;0.47;;;17.90;1.00;;;;;;5052446;28;20078;-81
2021/09/19 01:00:21;;;;;;;5.07;1.10;;;17.80;1.00;;;;;;5051656;28;20024;-81
2021/09/19 01:02:47;;;;;;;3.15;1.10;;;17.60;1.00;;;;;;5052562;28;20017;-81
2021/09/19 01:05:16;;;;;;;1.55;0.70;;;17.60;1.00;;;;;;5051680;28;20033;-81
2021/09/19 01:07:43;;;;;;;1.00;0.52;;;17.70;1.00;;;;;;5052698;28;20104;-81
2021/09/19 01:10:10;;;;;;;1.83;0.70;;;17.70;1.00;;;;;;5051527;28;20025;-81
2021/09/19 01:12:38;;;;;;;3.42;0.70;;;17.10;1.00;;;;;;5051302;28;20507;-80
2021/09/19 01:15:04;;;;;;;1.63;0.65;;;17.40;1.00;;;;;;5051896;28;20056;-79
2021/09/19 01:17:30;;;;;;;1.27;0.52;;;17.50;1.00;;;;;;5051594;28;20106;-80
2021/09/19 01:19:58;;;;;;;2.67;0.60;;;17.60;1.00;;;;;;5052463;28;20048;-81
2021/09/19 01:22:34;;;;;;;2.97;0.55;;;17.80;1.00;;;;;;5051459;28;20024;-81
2021/09/19 01:25:06;;;;;;;1.15;0.50;;;17.80;1.00;;;;;;5051119;28;20033;-81
2021/09/19 01:27:32;;;;;;;1.02;0.60;;;17.90;1.00;;;;;;5051711;28;20520;-81
2021/09/19 01:29:57;;;;;;;3.70;0.60;;;17.90;1.00;;;;;;5051252;28;20017;-81
2021/09/19 01:32:23;;;;;;;2.15;0.65;;;17.80;1.00;;;;;;5051364;28;20096;-81
2021/09/19 01:34:50;;;;;;;2.58;0.60;;;17.80;1.00;;;;;;5053165;28;20516;-81
2021/09/19 01:37:17;;;;;;;2.40;0.80;;;17.70;1.00;;;;;;5050342;28;20033;-81
2021/09/19 01:39:43;;;;;;;3.05;1.10;;;17.70;1.00;;;;;;5051145;28;20037;-81
2021/09/19 01:42:09;;;;;;;1.95;0.70;;;17.70;1.00;;;;;;5050924;28;20036;-81
2021/09/19 01:44:35;;;;;;;1.88;0.50;;;17.70;1.00;;;;;;5049897;28;20021;-81
2021/09/19 01:47:00;;;;;;;2.65;0.70;;;17.70;1.00;;;;;;5052501;28;20408;-81
2021/09/19 01:49:26;;;;;;;2.80;0.70;;;17.70;1.00;;;;;;5051834;28;20436;-81
2021/09/19 01:51:52;;;;;;;1.70;0.60;;;17.70;1.00;;;;;;5050115;28;20144;-81
2021/09/19 01:54:17;;;;;;;5.25;1.00;;;17.60;1.00;;;;;;5050639;28;20029;-81
2021/09/19 01:56:43;;;;;;;3.28;0.80;;;17.60;1.00;;;;;;5051060;28;20047;-81
2021/09/19 01:59:09;;;;;;;3.03;0.75;;;17.60;1.00;;;;;;5051888;28;20024;-81
2021/09/19 02:01:34;;;;;;;2.45;0.65;;;17.40;1.00;;;;;;5053388;28;20013;-81
2021/09/19 02:04:00;;;;;;;1.75;0.63;;;17.30;1.00;;;;;;5050446;28;20467;-81
2021/09/19 02:06:26;;;;;;;5.82;0.68;;;17.30;1.00;;;;;;5050161;28;20028;-81
2021/09/19 02:08:52;;;;;;;3.80;1.05;;;17.20;1.00;;;;;;5050565;28;20112;-80
2021/09/19 02:11:19;;;;;;;4.10;0.55;;;17.20;1.00;;;;;;5050755;28;20079;-81
2021/09/19 02:13:46;;;;;;;0.98;0.30;;;17.20;1.00;;;;;;5052841;28;20037;-81
2021/09/19 02:16:15;;;;;;;1.27;0.63;;;17.20;1.00;;;;;;5050044;28;20473;-80
2021/09/19 02:18:40;;;;;;;0.80;0.40;;;17.30;1.00;;;;;;5032616;28;20021;-81
2021/09/19 02:21:09;;;;;;;1.65;0.60;;;17.30;1.00;;;;;;5050606;28;20131;-81
2021/09/19 02:23:34;;;;;;;3.60;0.43;;;17.50;1.00;;;;;;5048553;28;20128;-81
2021/09/19 02:26:00;;;;;;;2.70;0.70;;;17.50;1.00;;;;;;5052021;28;20384;-81
2021/09/19 02:28:26;;;;;;;3.22;0.80;;;17.60;1.00;;;;;;5050949;28;20029;-80
2021/09/19 02:30:52;;;;;;;1.42;0.47;;;17.50;1.00;;;;;;5050252;28;20052;-80
2021/09/19 02:33:18;;;;;;;3.45;0.70;;;17.40;1.00;;;;;;5049718;28;20445;-81
2021/09/19 02:35:44;;;;;;;1.77;0.50;;;17.30;1.00;;;;;;5049514;28;20408;-81
2021/09/19 02:38:10;;;;;;;1.15;0.40;;;17.30;1.00;;;;;;5050259;28;20028;-81
2021/09/19 02:40:35;;;;;;;2.80;0.57;;;17.40;1.00;;;;;;5052294;28;20029;-81
2021/09/19 02:43:02;;;;;;;3.13;0.85;;;17.30;1.00;;;;;;5049804;28;20029;-81
2021/09/19 02:45:28;;;;;;;1.98;0.47;;;17.30;1.00;;;;;;5049964;28;20052;-81
2021/09/19 02:47:54;;;;;;;2.50;0.50;;;17.30;1.00;;;;;;5049736;28;20056;-81
2021/09/19 02:50:22;;;;;;;1.95;0.50;;;17.40;1.00;;;;;;5050408;28;20400;-81
2021/09/19 02:52:48;;;;;;;2.20;0.57;;;17.30;1.00;;;;;;5051622;28;20481;-81
2021/09/19 02:55:15;;;;;;;1.73;0.50;;;17.30;1.00;;;;;;5050013;28;20374;-81
2021/09/19 02:57:41;;;;;;;6.20;0.57;;;17.20;1.00;;;;;;5049498;28;20032;-80
2021/09/19 03:00:10;;;;;;;2.15;0.60;;;17.00;1.00;;;;;;5049506;28;20021;-80
2021/09/19 03:02:36;;;;;;;1.75;0.68;;;16.70;1.00;;;;;;5048065;28;20025;-81
2021/09/19 03:05:02;;;;;;;0.73;0.30;;;16.60;1.00;;;;;;5050646;28;20079;-80
2021/09/19 03:07:28;;;;;;;0.82;0.50;;;16.70;1.00;;;;;;5050662;28;20051;-80
2021/09/19 03:09:53;;;;;;;3.15;0.70;;;16.80;1.00;;;;;;5050144;28;20021;-80
2021/09/19 03:12:19;;;;;;;1.00;0.50;;;17.00;1.00;;;;;;5050014;28;20464;-80
2021/09/19 03:14:45;;;;;;;0.85;0.40;;;16.90;1.00;;;;;;5049972;28;20382;-80
2021/09/19 03:17:10;;;;;;;4.78;0.73;;;17.00;1.00;;;;;;5049483;28;20078;-80
2021/09/19 03:19:36;;;;;;;3.88;2.03;;;17.10;1.00;;;;;;5050814;28;20504;-80
2021/09/19 03:22:02;;;;;;;2.17;1.73;;;17.20;1.00;;;;;;5049290;28;20032;-80
2021/09/19 03:24:27;;;;;;;2.15;1.08;;;17.10;1.00;;;;;;5049241;28;20037;-80
2021/09/19 03:26:53;;;;;;;3.17;0.98;;;17.10;1.00;;;;;;5050136;28;20385;-80
2021/09/19 03:29:19;;;;;;;1.92;1.02;;;17.20;1.00;;;;;;5049540;28;20032;-80
2021/09/19 03:31:44;;;;;;;2.67;1.80;;;17.20;1.00;;;;;;5051212;28;20108;-80
2021/09/19 03:34:10;;;;;;;3.10;1.80;;;17.10;1.00;;;;;;5049144;28;20159;-80
2021/09/19 03:36:36;;;;;;;2.85;1.10;;;17.10;1.00;;;;;;5049196;28;20025;-80
2021/09/19 03:39:03;;;;;;;3.92;1.90;;;17.10;1.00;;;;;;5049108;28;20029;-80
2021/09/19 03:41:29;;;;;;;2.22;1.40;;;17.20;1.00;;;;;;5047758;28;20048;-80
2021/09/19 03:43:56;;;;;;;2.17;1.48;;;17.30;1.00;;;;;;5051361;28;20403;-80
2021/09/19 03:46:22;;;;;;;4.63;1.20;;;17.20;1.00;;;;;;5049317;28;20048;-80
2021/09/19 03:48:47;;;;;;;1.60;0.70;;;17.20;1.00;;;;;;5052921;28;20057;-80
2021/09/19 03:51:13;;;;;;;2.60;0.50;;;17.20;1.00;;;;;;5053009;28;20025;-80
2021/09/19 03:53:39;;;;;;;2.33;0.85;;;17.20;1.00;;;;;;5053209;28;20025;-80
2021/09/19 03:56:05;;;;;;;4.22;0.73;;;17.20;1.00;;;;;;5054144;28;20028;-81
2021/09/19 03:58:31;;;;;;;1.73;0.60;;;17.20;1.00;;;;;;5055094;28;20044;-81
2021/09/19 04:00:57;;;;;;;1.85;0.50;;;17.10;1.00;;;;;;5052857;28;20119;-80
2021/09/19 04:03:23;;;;;;;2.65;0.82;;;17.10;1.00;;;;;;5053294;28;20052;-80
2021/09/19 04:05:48;;;;;;;2.35;0.85;;;17.00;1.00;;;;;;5053329;28;20121;-80
2021/09/19 04:08:14;;;;;;;3.13;0.60;;;17.10;1.00;;;;;;5053323;28;20592;-80
2021/09/19 04:10:40;;;;;;;0.70;0.60;;;17.10;1.00;;;;;;5054840;28;20392;-80
2021/09/19 04:13:05;;;;;;;2.72;0.52;;;17.10;1.00;;;;;;5052940;28;20072;-80
2021/09/19 04:15:31;;;;;;;1.63;0.80;;;17.10;1.00;;;;;;5051895;28;20052;-80
2021/09/19 04:17:57;;;;;;;2.10;0.82;;;17.10;1.00;;;;;;5052579;28;20032;-80
2021/09/19 04:20:22;;;;;;;2.40;0.50;;;17.00;1.00;;;;;;5035720;28;20048;-80
2021/09/19 04:22:48;;;;;;;1.75;0.63;;;17.10;1.00;;;;;;5054106;28;20032;-80
2021/09/19 04:25:14;;;;;;;1.33;0.68;;;17.00;1.00;;;;;;5052980;28;20385;-80
2021/09/19 04:27:40;;;;;;;2.78;0.80;;;17.10;1.00;;;;;;5052505;28;20040;-80
2021/09/19 04:30:07;;;;;;;1.17;0.60;;;17.00;1.00;;;;;;5051887;28;20546;-80
2021/09/19 04:32:33;;;;;;;3.10;0.60;;;16.90;1.00;;;;;;5052284;28;20037;-80
2021/09/19 04:34:58;;;;;;;1.13;0.60;;;17.00;1.00;;;;;;5054011;28;20496;-80
2021/09/19 04:37:24;;;;;;;1.42;0.52;;;16.90;1.00;;;;;;5052922;28;20032;-80
2021/09/19 04:39:50;;;;;;;2.50;0.50;;;16.90;1.00;;;;;;5052150;28;20036;-80
2021/09/19 04:42:15;;;;;;;1.27;0.60;;;16.90;1.00;;;;;;5051934;28;20401;-80
2021/09/19 04:44:42;;;;;;;1.45;0.60;;;16.90;1.00;;;;;;5052907;28;20170;-80
2021/09/19 04:47:08;;;;;;;3.67;1.00;;;16.80;1.00;;;;;;5052455;28;20013;-80
2021/09/19 04:49:34;;;;;;;0.75;0.40;;;16.90;1.00;;;;;;5053759;28;20029;-80
2021/09/19 04:52:00;;;;;;;1.20;0.50;;;16.90;1.00;;;;;;5051787;28;20033;-80
2021/09/19 04:54:26;;;;;;;1.25;0.50;;;16.90;1.00;;;;;;5051856;28;20041;-80
2021/09/19 04:56:52;;;;;;;2.28;0.50;;;16.90;1.00;;;;;;5051226;28;20558;-81
2021/09/19 04:59:18;;;;;;;0.60;0.40;;;16.90;1.00;;;;;;5050908;28;20041;-80
2021/09/19 05:01:43;;;;;;;1.60;0.43;;;16.90;1.00;;;;;;5053654;28;20483;-80
2021/09/19 05:04:09;;;;;;;1.50;0.82;;;16.90;1.00;;;;;;5051816;28;20086;-80
2021/09/19 05:06:35;;;;;;;0.47;0.45;;;16.80;1.00;;;;;;5051628;28;20037;-80
2021/09/19 05:09:01;;;;;;;1.02;0.45;;;16.90;1.00;;;;;;5051489;28;20033;-80
2021/09/19 05:11:26;;;;;;;0.82;0.50;;;16.90;1.00;;;;;;5052012;28;20028;-80
2021/09/19 05:13:52;;;;;;;3.05;0.50;;;16.80;1.00;;;;;;5053118;28;20056;-79
2021/09/19 05:16:18;;;;;;;1.70;0.50;;;16.80;1.00;;;;;;5051841;28;20450;-80
2021/09/19 05:18:44;;;;;;;0.73;0.47;;;16.80;1.00;;;;;;5050615;28;20107;-80
2021/09/19 05:21:09;;;;;;;1.15;0.50;;;16.80;1.00;;;;;;5051715;28;20359;-80
2021/09/19 05:23:35;;;;;;;1.38;0.40;;;16.70;1.00;;;;;;5051801;28;20050;-80
2021/09/19 05:26:01;;;;;;;1.75;0.60;;;16.80;1.00;;;;;;5052517;28;20040;-80
2021/09/19 05:28:27;;;;;;;1.67;0.40;;;16.90;1.00;;;;;;5051797;28;20119;-80
2021/09/19 05:30:52;;;;;;;2.85;0.50;;;16.90;1.00;;;;;;5050990;28;20021;-80
2021/09/19 05:33:19;;;;;;;1.50;0.50;;;16.90;1.00;;;;;;5051027;28;20417;-80
2021/09/19 05:35:45;;;;;;;0.73;0.38;;;16.80;1.00;;;;;;5051503;28;20025;-80
2021/09/19 05:38:10;;;;;;;0.65;0.40;;;16.80;1.00;;;;;;5051812;28;20037;-80
2021/09/19 05:40:36;;;;;;;3.97;0.73;;;16.80;1.00;;;;;;5051055;28;20025;-80
2021/09/19 05:43:03;;;;;;;1.98;0.60;;;16.80;1.00;;;;;;5050801;28;20432;-81
2021/09/19 05:45:30;;;;;;;1.23;0.50;;;16.80;1.00;;;;;;5051159;28;20084;-80
2021/09/19 05:47:55;;;;;;;0.90;0.40;;;16.80;1.00;;;;;;5051060;28;20021;-80
2021/09/19 05:50:22;;;;;;;0.70;0.52;;;16.70;1.00;;;;;;5051025;28;20025;-80
2021/09/19 05:52:48;;;;;;;2.85;0.60;;;16.70;1.00;;;;;;5053365;28;20033;-80
2021/09/19 05:55:13;;;;;;;1.45;0.60;;;16.80;1.00;;;;;;5050755;28;20048;-80
2021/09/19 05:57:39;;;;;;;2.33;1.13;;;16.80;1.00;;;;;;5050302;28;20389;-80
2021/09/19 06:00:07;;;;;;;0.95;0.50;;;16.80;1.00;;;;;;5050922;28;20017;-80
2021/09/19 06:02:33;;;;;;;3.72;0.60;;;16.70;1.00;;;;;;5051237;28;20017;-80
2021/09/19 06:04:58;;;;;;;2.80;0.50;;;16.80;1.00;;;;;;5051936;28;20060;-80
2021/09/19 06:07:24;;;;;;;1.65;0.50;;;16.80;1.00;;;;;;5051359;28;20029;-80
2021/09/19 06:09:49;;;;;;;1.17;0.50;;;16.80;1.00;;;;;;5049494;28;20033;-80
2021/09/19 06:12:15;;;;;;;0.95;0.52;;;16.80;1.00;;;;;;5050429;28;20045;-80
2021/09/19 06:14:41;;;;;;;2.63;0.50;;;16.80;1.00;;;;;;5050150;28;20076;-79
2021/09/19 06:17:07;;;;;;;2.50;0.50;;;16.90;1.00;;;;;;5051506;28;20052;-80
2021/09/19 06:19:32;;;;;;;4.13;0.90;;;17.00;1.00;;;;;;5049457;28;20029;-80
2021/09/19 06:21:59;;;;;;;2.25;0.55;;;17.10;1.00;;;;;;5049761;28;20060;-80
2021/09/19 06:24:25;;;;;;;1.95;0.60;;;17.20;1.00;;;;;;5049492;28;20021;-86
2021/09/19 06:26:51;;;;;;;2.00;0.30;;;17.10;1.00;;;;;;5050537;28;20029;-81
2021/09/19 06:29:17;;;;;;;1.95;0.50;;;17.20;1.00;;;;;;5050040;28;20036;-81
2021/09/19 06:31:42;;;;;;;1.25;0.68;;;17.40;1.00;;;;;;5051864;28;20389;-81
2021/09/19 06:34:08;;;;;;;1.13;0.40;;;17.40;1.00;;;;;;5050406;28;20484;-80
2021/09/19 06:36:34;;;;;;;0.90;0.40;;;17.50;1.00;;;;;;5050303;28;20025;-81
2021/09/19 06:39:02;;;;;;;2.13;0.50;;;17.50;1.00;;;;;;5049873;28;20063;-82
2021/09/19 06:41:28;;;;;;;1.60;0.50;;;17.50;1.00;;;;;;5049667;28;20029;-81
2021/09/19 06:43:53;;;;;;;2.05;0.60;;;17.60;1.00;;;;;;5051948;28;20435;-81
2021/09/19 06:46:19;;;;;;;2.50;0.77;;;17.60;1.00;;;;;;5049855;28;20143;-81
2021/09/19 06:48:45;;;;;;;0.73;0.60;;;17.60;1.00;;;;;;5032249;28;20032;-80
2021/09/19 06:51:10;;;;;;;1.20;0.70;;;17.60;1.00;;;;;;5049591;28;20029;-81
2021/09/19 06:53:37;;;;;;;1.42;0.60;;;17.70;1.00;;;;;;5049565;28;20037;-82
2021/09/19 06:56:04;;;;;;;1.58;0.60;;;17.80;1.00;;;;;;5050234;28;20036;-81
2021/09/19 06:58:31;;;;;;;2.08;0.50;;;17.80;1.00;;;;;;5049392;28;20389;-81
2021/09/19 07:00:57;;;;;;;2.03;0.80;;;18.00;1.00;;;;;;5049426;28;20068;-81
2021/09/19 07:03:22;;;;;;;0.93;0.70;;;18.00;1.00;;;;;;5049565;28;20439;-81
2021/09/19 07:05:48;;;;;;;3.58;1.00;;;17.90;1.00;;;;;;5049553;28;20025;-81
2021/09/19 07:08:14;;;;;;;2.88;0.95;;;17.70;1.00;;;;;;5049510;28;20028;-81
2021/09/19 07:10:40;;;;;;;1.60;0.80;;;17.60;1.00;;;;;;5051058;28;20051;-81
2021/09/19 07:13:05;;;;;;;0.80;0.60;;;17.50;1.00;;;;;;5049040;28;20036;-81
2021/09/19 07:15:31;;;;;;;1.88;0.80;;;17.30;1.00;;;;;;5049163;28;20068;-81
2021/09/19 07:17:57;;;;;;;1.35;0.60;;;17.40;1.00;;;;;;5049821;28;20119;-81
2021/09/19 07:20:22;;;;;;;1.50;0.70;;;17.50;1.00;;;;;;5050274;28;20128;-81
2021/09/19 07:22:48;;;;;;;2.45;0.60;;;17.40;1.00;;;;;;5051525;28;20408;-81
2021/09/19 07:25:15;;;;;;;1.02;0.60;;;17.40;1.00;;;;;;5048860;28;20025;-81
2021/09/19 07:27:41;;;;;;;1.20;0.80;;;17.40;1.00;;;;;;5048863;28;20036;-81
2021/09/19 07:30:07;;;;;;;1.75;0.60;;;17.30;1.00;;;;;;5047955;28;20025;-81
2021/09/19 07:32:34;;;;;;;0.80;0.70;;;17.20;1.00;;;;;;5049388;28;20029;-78
2021/09/19 07:35:01;;;;;;;2.15;0.90;;;17.20;1.00;;;;;;5050748;28;20036;-78
2021/09/19 07:37:27;;;;;;;0.80;0.80;;;17.10;1.00;;;;;;5048619;28;20028;-75
2021/09/19 07:39:53;;;;;;;0.85;0.70;;;17.20;1.00;;;;;;5048357;28;20028;-77
2021/09/19 07:42:19;;;;;;;2.25;0.63;;;17.50;1.00;;;;;;5049033;28;20409;-75
2021/09/19 07:44:45;;;;;;;1.23;0.77;;;17.60;1.00;;;;;;5048848;28;20028;-76
2021/09/19 07:47:11;;;;;;;1.10;0.73;;;17.80;1.00;;;;;;5046874;28;20029;-78
2021/09/19 07:49:39;;;;;;;0.70;0.70;;;17.70;1.00;;;;;;5051041;28;20041;-78
2021/09/19 07:52:06;;;;;;;1.48;0.60;;;17.70;1.00;;;;;;5049343;28;20067;-78
2021/09/19 07:54:32;;;;;;;2.85;0.70;;;17.70;1.00;;;;;;5048923;28;20025;-76
2021/09/19 07:56:58;;;;;;;0.68;0.47;;;17.60;1.00;;;;;;5048995;28;20052;-78
2021/09/19 07:59:24;;;;;;;1.25;0.52;;;17.70;1.00;;;;;;5033364;28;20025;-78
2021/09/19 08:01:49;;;;;;;1.95;0.60;;;17.90;1.00;;;;;;5051159;28;20377;-76
2021/09/19 08:04:15;;;;;;;2.33;0.70;;;18.40;1.00;;;;;;5049166;28;20029;-78
2021/09/19 08:06:41;;;;;;;3.33;0.50;;;18.90;1.00;;;;;;5049042;28;20029;-78
2021/09/19 08:09:06;;;;;;;3.83;0.68;;;19.20;1.00;;;;;;5048594;28;20020;-78
2021/09/19 08:11:32;;;;;;;1.80;0.60;;;19.40;1.00;;;;;;5048593;28;20055;-78
2021/09/19 08:14:05;;;;;;;2.55;0.70;;;19.60;1.00;;;;;;5050410;28;20107;-79
2021/09/19 08:16:34;;;;;;;0.60;0.40;;;19.50;1.00;;;;;;5050297;28;20099;-78
2021/09/19 08:19:00;;;;;;;2.47;0.80;;;19.20;1.00;;;;;;5048974;28;20033;-79
2021/09/19 08:21:26;;;;;;;1.17;0.60;;;19.30;1.00;;;;;;5048699;28;20032;-78
2021/09/19 08:23:51;;;;;;;1.52;0.75;;;19.30;1.00;;;;;;5048548;28;20471;-78
2021/09/19 08:26:17;;;;;;;3.95;0.70;;;19.50;1.00;;;;;;5049006;28;20898;-79
2021/09/19 08:28:43;;;;;;;0.52;0.40;;;19.90;1.00;;;;;;5051372;28;20025;-79
2021/09/19 08:31:08;;;;;;;0.82;0.50;;;20.20;1.00;;;;;;5049148;28;20524;-79
2021/09/19 08:33:34;;;;;;;0.85;0.50;;;20.30;1.00;;;;;;5051190;28;20516;-79
2021/09/19 08:36:00;;;;;;;3.45;0.68;;;20.30;1.00;;;;;;5049187;28;20040;-79
2021/09/19 08:38:26;;;;;;;1.45;0.80;;;20.20;1.00;;;;;;5052643;28;20028;-79
2021/09/19 08:40:52;;;;;;;1.13;0.57;;;20.20;1.00;;;;;;5054172;28;20049;-79
2021/09/19 08:43:18;;;;;;;1.17;0.60;;;20.20;1.00;;;;;;5051883;28;20021;-79
2021/09/19 08:45:51;;;;;;;1.17;0.70;;;20.30;1.00;;;;;;5051820;28;20167;-80
2021/09/19 08:48:21;;;;;;;0.98;0.70;;;20.40;1.00;;;;;;5051886;28;20032;-79
2021/09/19 08:50:51;;;;;;;0.73;0.60;;;20.60;1.00;;;;;;5051978;28;21339;-79
2021/09/19 08:53:16;;;;;;;1.90;0.85;;;20.60;1.00;;;;;;5051960;28;20041;-79
2021/09/19 08:55:43;;;;;;;0.60;0.60;;;21.10;1.00;;;;;;5052627;28;20461;-79
2021/09/19 08:58:10;;;;;;;0.98;0.60;;;21.70;1.00;;;;;;5052279;28;20039;-79
2021/09/19 09:00:42;;;;;;;1.58;0.60;;;22.50;1.00;;;;;;5051967;28;20032;-79
2021/09/19 09:03:12;;;;;;;1.20;0.77;;;23.30;1.00;;;;;;5051755;28;20493;-79
2021/09/19 09:05:38;;;;;;;1.55;0.88;;;23.50;1.00;;;;;;5051499;28;20064;-79
2021/09/19 09:08:06;;;;;;;1.27;0.90;;;22.70;1.00;;;;;;5052837;28;20029;-78
2021/09/19 09:10:32;;;;;;;1.65;0.80;;;21.70;1.00;;;;;;5053250;28;20029;-79
2021/09/19 09:13:02;;;;;;;3.50;0.82;;;21.20;1.00;;;;;;5052325;28;20025;-79
2021/09/19 09:15:33;;;;;;;0.88;0.70;;;20.80;1.00;;;;;;5051884;28;20041;-79
2021/09/19 09:17:59;;;;;;;1.75;0.82;;;20.30;1.00;;;;;;5051632;28;20032;-79
2021/09/19 09:20:24;;;;;;;1.80;0.90;;;19.70;1.00;;;;;;5051126;28;20029;-80
2021/09/19 09:22:50;;;;;;;0.85;0.85;;;19.40;1.00;;;;;;5053637;28;20109;-80
2021/09/19 09:25:17;;;;;;;2.83;1.00;;;19.40;1.00;;;;;;5051228;28;20021;-79
2021/09/19 09:27:44;;;;;;;1.00;0.98;;;19.30;1.00;;;;;;5051264;28;20031;-79
2021/09/19 09:30:16;;;;;;;1.92;1.25;;;19.10;1.00;;;;;;5051853;28;20396;-79
2021/09/19 09:33:05;;;;;;;1.33;1.10;;;19.10;1.00;;;;;;5049755;28;20102;-79
2021/09/19 09:35:41;;;;;;;1.33;1.00;;;18.80;1.00;;;;;;5035943;28;20025;-79
2021/09/19 09:38:20;;;;;;;1.02;0.80;;;18.80;1.00;;;;;;5051793;28;20095;-79
2021/09/19 09:40:47;;;;;;;2.83;1.10;;;18.60;1.00;;;;;;5052438;28;20043;-79
2021/09/19 09:43:15;;;;;;;1.02;0.93;;;18.10;1.00;;;;;;5050691;28;20412;-79
2021/09/19 09:45:42;;;;;;;2.15;1.17;;;18.30;1.00;;;;;;5050791;28;20492;-79
2021/09/19 09:48:27;;;;;;;1.25;1.15;;;18.30;1.00;;;;;;5050911;28;20550;-77
2021/09/19 09:51:00;;;;;;;1.70;1.20;;;18.60;1.00;;;;;;5051016;28;20507;-77
2021/09/19 09:53:26;;;;;;;1.85;0.90;;;18.50;1.00;;;;;;5043445;28;20037;-78
2021/09/19 09:55:54;;;;;;;1.75;1.00;;;18.50;1.00;;;;;;5041250;28;20032;-78
2021/09/19 09:58:21;;;;;;;1.17;1.08;;;18.40;1.00;;;;;;5051092;28;20599;-78
2021/09/19 10:00:50;;;;;;;1.42;1.20;;;18.30;1.00;;;;;;5050595;28;20024;-79
2021/09/19 10:03:16;;;;;;;1.90;1.00;;;18.60;1.00;;;;;;5050619;28;20040;-79
2021/09/19 10:05:42;;;;;;;2.45;0.95;;;18.70;1.00;;;;;;5049418;28;20025;-78
2021/09/19 10:08:08;;;;;;;1.10;1.00;;;18.90;1.00;;;;;;5051053;28;20025;-78
2021/09/19 10:10:39;;;;;;;2.50;1.10;;;19.10;1.00;;;;;;5052240;28;20154;-79
2021/09/19 10:13:05;;;;;;;2.08;1.15;;;19.60;1.00;;;;;;5049619;28;20036;-79
2021/09/19 10:15:31;;;;;;;1.05;0.65;;;20.40;1.00;;;;;;5050159;28;20045;-79
2021/09/19 10:17:57;;;;;;;1.27;0.95;;;22.00;1.00;;;;;;5049726;28;20107;-81
2021/09/19 10:20:27;;;;;;;0.98;0.82;;;22.80;1.00;;;;;;5034667;28;20021;-81
2021/09/19 10:23:15;;;;;;;0.95;0.80;;;22.60;1.00;;;;;;5048845;28;20047;-82
2021/09/19 10:25:42;;;;;;;1.60;0.80;;;22.20;1.00;;;;;;5050737;28;20021;-82
2021/09/19 10:28:20;;;;;;;1.45;0.90;;;21.70;1.00;;;;;;5050465;28;20021;-81
2021/09/19 10:31:07;;;;;;;1.10;0.70;;;21.70;1.00;;;;;;5050173;28;20025;-82
2021/09/19 10:33:57;;;;;;;0.50;0.50;;;21.60;1.00;;;;;;5049424;28;20059;-81
2021/09/19 10:36:26;;;;;;;0.47;0.47;;;21.30;1.00;;;;;;5050318;28;20021;-81
2021/09/19 10:38:52;;;;;;;1.67;0.52;;;21.10;1.00;;;;;;5049818;28;20078;-81
2021/09/19 10:41:22;;;;;;;1.17;0.68;;;20.70;1.00;;;;;;5049861;28;20033;-82
2021/09/19 10:44:01;;;;;;;0.40;0.40;;;20.60;1.00;;;;;;5052212;28;20123;-79
2021/09/19 10:46:36;;;;;;;1.02;0.50;;;20.30;1.00;;;;;;5051014;28;20021;-82
2021/09/19 10:49:19;;;;;;;0.52;0.50;;;20.40;1.00;;;;;;5049212;28;20473;-83
2021/09/19 10:52:00;;;;;;;1.13;0.45;;;20.60;1.00;;;;;;5047914;28;20440;-83
2021/09/19 10:54:49;;;;;;;0.93;0.50;;;20.70;1.00;;;;;;5049890;28;20032;-83
2021/09/19 10:57:30;;;;;;;1.13;0.65;;;21.50;1.00;;;;;;5049937;28;20129;-83
2021/09/19 11:00:07;;;;;;;2.15;0.55;;;22.70;1.00;;;;;;5050059;28;20036;-79
2021/09/19 11:02:35;;;;;;;0.73;0.40;;;23.00;1.00;;;;;;5034558;28;20170;-79
2021/09/19 11:05:23;;;;;;;1.23;0.70;;;22.40;1.00;;;;;;5050675;28;20078;-79
2021/09/19 11:07:50;;;;;;;1.10;0.57;;;22.90;1.00;;;;;;5051917;28;20577;-80
2021/09/19 11:10:16;;;;;;;0.57;0.40;;;25.50;99.90;;;;;;5049113;28;20404;-79
2021/09/19 11:12:46;;;;;;;1.08;0.50;;;24.20;1.00;;;;;;5049517;28;20124;-79
2021/09/19 11:15:22;;;;;;;2.03;0.60;;;24.00;1.00;;;;;;5048961;28;20398;-79
2021/09/19 11:17:49;;;;;;;0.63;0.47;;;23.70;1.00;;;;;;5048792;28;20412;-78
2021/09/19 11:20:17;;;;;;;3.20;0.70;;;22.90;1.00;;;;;;5049643;28;20038;-79
2021/09/19 11:22:46;;;;;;;1.60;0.55;;;22.80;1.00;;;;;;5051691;28;20025;-78
2021/09/19 11:25:13;;;;;;;1.52;0.70;;;22.60;1.00;;;;;;5049309;28;20033;-78
2021/09/19 11:27:43;;;;;;;1.98;0.43;;;22.60;1.00;;;;;;5049082;28;20389;-79
2021/09/19 11:30:10;;;;;;;0.50;0.50;;;22.60;1.00;;;;;;5047400;28;20029;-79
2021/09/19 11:32:37;;;;;;;2.67;0.57;;;22.70;1.00;;;;;;5027586;28;20497;-79
2021/09/19 11:35:06;;;;;;;3.78;0.65;;;23.10;1.00;;;;;;5041448;28;20037;-78
2021/09/19 11:37:32;;;;;;;7.90;1.00;;;23.30;1.00;;;;;;5046766;28;20497;-78
2021/09/19 11:39:58;;;;;;;1.77;0.55;;;24.30;99.90;;;;;;5042968;28;20045;-79
2021/09/19 11:42:26;;;;;;;1.63;0.60;;;24.00;99.90;;;;;;5049004;28;20033;-84
2021/09/19 11:44:55;;;;;;;1.80;0.50;;;24.30;99.90;;;;;;5050337;28;20028;-85
2021/09/19 11:47:22;;;;;;;1.88;0.40;;;25.30;99.90;;;;;;5048007;28;20037;-81
2021/09/19 11:49:57;;;;;;;1.42;0.60;;;26.20;1.00;;;;;;5055235;28;20075;-80
2021/09/19 11:52:23;;;;;;;1.20;0.70;;;29.00;99.90;;;;;;5053583;28;20047;-80
2021/09/19 11:54:50;;;;;;;1.23;0.50;;;30.60;99.90;;;;;;5051031;28;20478;-80
2021/09/19 11:57:16;;;;;;;0.60;0.60;;;30.30;99.90;;;;;;5051340;28;20032;-83
2021/09/19 11:59:44;;;;;;;0.73;0.50;;;27.90;99.90;;;;;;5048968;28;20029;-82
2021/09/19 12:02:11;;;;;;;0.98;0.47;;;27.80;99.90;;;;;;5051256;28;20025;-80
2021/09/19 12:04:38;;;;;;;1.05;0.60;;;29.50;99.90;;;;;;5053338;28;20025;-79
2021/09/19 12:07:04;;;;;;;1.27;0.50;;;27.60;99.90;;;;;;5051491;28;20037;-80
2021/09/19 12:09:29;;;;;;;3.00;0.60;;;26.10;99.90;;;;;;5055038;28;20028;-80
2021/09/19 12:11:56;;;;;;;0.90;0.55;;;24.50;99.90;;;;;;5040355;28;20390;-80
2021/09/19 12:14:27;;;;;;;8.73;0.98;;;23.60;99.90;;;;;;5024824;28;20081;-80
2021/09/19 12:17:04;;;;;;;1.35;0.40;;;23.10;99.90;;;;;;5036687;28;20505;-79
2021/09/19 12:19:32;;;;;;;1.52;0.70;;;22.30;99.90;;;;;;5058179;28;20517;-79
2021/09/19 12:22:04;;;;;;;3.25;1.00;;;21.60;1.00;;;;;;5059899;28;20056;-81
2021/09/19 12:24:32;;;;;;;2.70;0.82;;;21.40;1.00;;;;;;5048777;28;20032;-79
2021/09/19 12:27:18;;;;;;;1.17;0.73;;;21.30;1.00;;;;;;5036259;28;20398;-78
2021/09/19 12:30:05;;;;;;;1.27;0.60;;;21.20;1.00;;;;;;5041181;28;20523;-79
2021/09/19 12:32:46;;;;;;;1.63;0.50;;;20.80;1.00;;;;;;5036161;28;20061;-79
2021/09/19 12:35:25;;;;;;;2.22;0.57;;;20.70;1.00;;;;;;5054002;28;20036;-79
2021/09/19 12:37:51;;;;;;;0.90;0.57;;;20.70;1.00;;;;;;5054354;28;20025;-80
2021/09/19 12:40:22;;;;;;;3.42;1.05;;;20.50;1.00;;;;;;5046581;28;20516;-81
2021/09/19 12:42:49;;;;;;;1.92;0.82;;;20.70;1.00;;;;;;5051728;28;20059;-81
2021/09/19 12:45:16;;;;;;;0.98;0.73;;;20.80;1.00;;;;;;5054291;28;20024;-81
2021/09/19 12:47:43;;;;;;;1.40;0.90;;;21.10;1.00;;;;;;5052031;28;20064;-81
2021/09/19 12:50:12;;;;;;;1.35;0.65;;;21.40;1.00;;;;;;5051125;28;20681;-79
2021/09/19 12:52:39;;;;;;;2.10;0.80;;;21.70;1.00;;;;;;5044472;28;20025;-79
2021/09/19 12:55:05;;;;;;;1.45;0.60;;;21.80;1.00;;;;;;5047211;28;20398;-79
2021/09/19 12:57:32;;;;;;;4.40;1.58;;;22.10;1.00;;;;;;5046603;28;20346;-79